Westfield, WI

8:35 AM CST on February 10, 2016 (GMT -0600)
Manley's@Cant Hill | | Change Station
CLOSE
Current Station
Personal Weather Station
Location: Westfield, WI
Elevation: 1000 ft
Nearby Weather Stations

Elev 1000 ft 43.87 °N, 89.49 °W | Updated 6 minutes ago

Mostly Cloudy
Mostly Cloudy
4.9 °F
Feels Like -3 °F
N
4.0
Wind Variable Wind from WNW

Today
High -- | Low -- °F
--% Chance of Precip.
Yesterday
High -- | Low -- °F
Precip. -- in
Pressure 30.08 in
Visibility 10.0 miles
Clouds Overcast 3000 ft
Windchill -3 °F
Dew Point -1 °F
Humidity 78%
Rainfall 0.00 in
Snow Depth Not available.
7:04 AM 5:20 PM
Waxing Crescent, 5% visible
METAR KY50 101356Z AUTO 33006KT 10SM OVC030 M13/M19 A3003 RMK AO2 TSNO T11271188 SLP184
Pressure 30.08 in
Visibility 10.0 miles
Clouds Overcast 3000 ft
Windchill -3 °F
Dew Point -1 °F
Humidity 78%
Rainfall 0.00 in
Snow Depth Not available.
7:04 AM 5:20 PM
Waxing Crescent, 5% visible
METAR KY50 101356Z AUTO 33006KT 10SM OVC030 M13/M19 A3003 RMK AO2 TSNO T11271188 SLP184

10-Day Weather Forecast

Almanac

Astronomy

Feb. 10, 2016 Rise Set
Actual Time
Civil Twilight
Nautical Twilight
Astronomical Twilight
Moon
Length of Visible Light
Length of Day
Tomorrow will be .
, % of the Moon is Illuminated

Today's Extremes

State Highs State Lows

Community

WunderPhotos

Upload Photos

1,891,855 photos uploaded!

WunderBlog® & News

Nearby

Air Quality

  Air Quality AQ Index Pollutant
Not available.

Snow Depth

Station Depth Elevation

Earthquake Activity

City Distance Mag. Time & Date
Minimum magnitude displayed is 2.5.

Coastal Water Temperatures

Place Temperature

Stations

Nearby Weather Stations

Station Location Temp. Windchill Dew Point Humidity Wind Precip. Elev Updated Type
                   

Watches & Warnings

There are currently no watches in effect.